sensor_id;sensor_type;location;lat;lon;timestamp;temperature;humidity
54960;DHT22;40860;51.710;8.736;2022-12-18T00:02:37;-8.10;99.80
54960;DHT22;40860;51.710;8.736;2022-12-18T00:06:41;-8.10;99.80
54960;DHT22;40860;51.710;8.736;2022-12-18T00:10:45;-8.10;99.70
54960;DHT22;40860;51.710;8.736;2022-12-18T00:14:50;-8.20;99.80
54960;DHT22;40860;51.710;8.736;2022-12-18T00:18:54;-8.20;99.80
54960;DHT22;40860;51.710;8.736;2022-12-18T00:22:58;-8.20;99.90
54960;DHT22;40860;51.710;8.736;2022-12-18T00:27:00;-8.20;99.90
54960;DHT22;40860;51.710;8.736;2022-12-18T00:31:06;-8.20;99.90
54960;DHT22;40860;51.710;8.736;2022-12-18T00:35:10;-8.20;99.80
54960;DHT22;40860;51.710;8.736;2022-12-18T00:39:12;-8.20;99.90
54960;DHT22;40860;51.710;8.736;2022-12-18T00:43:18;-8.20;99.90
54960;DHT22;40860;51.710;8.736;2022-12-18T00:47:22;-8.20;99.90
54960;DHT22;40860;51.710;8.736;2022-12-18T00:51:25;-8.30;99.90
54960;DHT22;40860;51.710;8.736;2022-12-18T00:55:28;-8.30;99.70
54960;DHT22;40860;51.710;8.736;2022-12-18T00:59:31;-8.30;99.80
54960;DHT22;40860;51.710;8.736;2022-12-18T01:03:35;-8.30;99.90
54960;DHT22;40860;51.710;8.736;2022-12-18T01:07:39;-8.30;99.90
54960;DHT22;40860;51.710;8.736;2022-12-18T01:11:42;-8.30;99.90
54960;DHT22;40860;51.710;8.736;2022-12-18T01:15:48;-8.30;99.90
54960;DHT22;40860;51.710;8.736;2022-12-18T01:19:52;-8.30;99.90
54960;DHT22;40860;51.710;8.736;2022-12-18T01:23:56;-8.30;99.90
54960;DHT22;40860;51.710;8.736;2022-12-18T01:27:59;-8.40;99.80
54960;DHT22;40860;51.710;8.736;2022-12-18T01:32:03;-8.40;99.80
54960;DHT22;40860;51.710;8.736;2022-12-18T01:36:11;-8.40;99.90
54960;DHT22;40860;51.710;8.736;2022-12-18T01:40:16;-8.30;99.90
54960;DHT22;40860;51.710;8.736;2022-12-18T01:44:55;-8.40;99.90
54960;DHT22;40860;51.710;8.736;2022-12-18T01:49:00;-8.40;99.90
54960;DHT22;40860;51.710;8.736;2022-12-18T01:53:07;-8.40;99.70
54960;DHT22;40860;51.710;8.736;2022-12-18T01:57:12;-8.30;99.90
54960;DHT22;40860;51.710;8.736;2022-12-18T02:01:16;-8.20;99.90
54960;DHT22;40860;51.710;8.736;2022-12-18T02:05:24;-8.10;99.90
54960;DHT22;40860;51.710;8.736;2022-12-18T02:09:35;-7.90;99.90
54960;DHT22;40860;51.710;8.736;2022-12-18T02:13:46;-7.70;99.90
54960;DHT22;40860;51.710;8.736;2022-12-18T02:17:53;-7.60;99.90
54960;DHT22;40860;51.710;8.736;2022-12-18T02:22:07;-7.20;99.90
54960;DHT22;40860;51.710;8.736;2022-12-18T02:26:19;-6.90;99.90
54960;DHT22;40860;51.710;8.736;2022-12-18T02:30:26;-6.70;99.90
54960;DHT22;40860;51.710;8.736;2022-12-18T02:34:33;-6.60;99.90
54960;DHT22;40860;51.710;8.736;2022-12-18T02:38:41;-6.60;99.90
54960;DHT22;40860;51.710;8.736;2022-12-18T02:42:49;-6.60;99.90
54960;DHT22;40860;51.710;8.736;2022-12-18T02:46:54;-6.60;99.90
54960;DHT22;40860;51.710;8.736;2022-12-18T02:51:03;-6.20;99.90
54960;DHT22;40860;51.710;8.736;2022-12-18T02:55:21;-5.50;99.90
54960;DHT22;40860;51.710;8.736;2022-12-18T02:59:38;-5.10;99.90
54960;DHT22;40860;51.710;8.736;2022-12-18T03:03:48;-4.90;99.90
54960;DHT22;40860;51.710;8.736;2022-12-18T03:07:57;-4.90;99.90
54960;DHT22;40860;51.710;8.736;2022-12-18T03:12:08;-5.00;99.90
54960;DHT22;40860;51.710;8.736;2022-12-18T03:16:32;-5.10;99.90
54960;DHT22;40860;51.710;8.736;2022-12-18T03:20:38;-5.20;99.90
54960;DHT22;40860;51.710;8.736;2022-12-18T03:24:42;-5.30;99.90
54960;DHT22;40860;51.710;8.736;2022-12-18T03:28:49;-5.10;99.90
54960;DHT22;40860;51.710;8.736;2022-12-18T03:33:00;-5.00;99.90
54960;DHT22;40860;51.710;8.736;2022-12-18T03:37:05;-4.90;99.90
54960;DHT22;40860;51.710;8.736;2022-12-18T03:41:16;-4.90;99.80
54960;DHT22;40860;51.710;8.736;2022-12-18T03:45:54;-5.10;99.60
54960;DHT22;40860;51.710;8.736;2022-12-18T03:50:10;-5.30;99.60
54960;DHT22;40860;51.710;8.736;2022-12-18T03:54:17;-5.40;99.80
54960;DHT22;40860;51.710;8.736;2022-12-18T03:58:28;-5.30;99.90
54960;DHT22;40860;51.710;8.736;2022-12-18T04:02:50;-5.20;99.90
54960;DHT22;40860;51.710;8.736;2022-12-18T04:07:01;-5.20;99.80
54960;DHT22;40860;51.710;8.736;2022-12-18T04:11:07;-5.20;99.70
54960;DHT22;40860;51.710;8.736;2022-12-18T04:15:12;-5.10;99.80
54960;DHT22;40860;51.710;8.736;2022-12-18T04:19:16;-5.20;99.70
54960;DHT22;40860;51.710;8.736;2022-12-18T04:23:25;-5.20;99.80
54960;DHT22;40860;51.710;8.736;2022-12-18T04:27:31;-5.20;99.80
54960;DHT22;40860;51.710;8.736;2022-12-18T04:31:34;-5.10;99.90
54960;DHT22;40860;51.710;8.736;2022-12-18T04:35:38;-5.00;99.80
54960;DHT22;40860;51.710;8.736;2022-12-18T04:39:42;-5.00;99.90
54960;DHT22;40860;51.710;8.736;2022-12-18T04:43:56;-4.80;99.80
54960;DHT22;40860;51.710;8.736;2022-12-18T04:47:59;-4.70;99.60
54960;DHT22;40860;51.710;8.736;2022-12-18T04:52:02;-4.70;99.70
54960;DHT22;40860;51.710;8.736;2022-12-18T04:56:08;-4.60;99.60
54960;DHT22;40860;51.710;8.736;2022-12-18T05:00:12;-4.50;99.50
54960;DHT22;40860;51.710;8.736;2022-12-18T05:04:15;-4.50;99.50
54960;DHT22;40860;51.710;8.736;2022-12-18T05:08:18;-4.30;99.40
54960;DHT22;40860;51.710;8.736;2022-12-18T05:12:23;-4.30;98.90
54960;DHT22;40860;51.710;8.736;2022-12-18T05:16:26;-4.70;98.30
54960;DHT22;40860;51.710;8.736;2022-12-18T05:20:28;-5.10;98.40
54960;DHT22;40860;51.710;8.736;2022-12-18T05:24:31;-5.30;98.70
54960;DHT22;40860;51.710;8.736;2022-12-18T05:28:36;-5.50;98.80
54960;DHT22;40860;51.710;8.736;2022-12-18T05:32:39;-5.60;99.30
54960;DHT22;40860;51.710;8.736;2022-12-18T05:36:42;-5.70;99.30
54960;DHT22;40860;51.710;8.736;2022-12-18T05:40:45;-5.80;99.20
54960;DHT22;40860;51.710;8.736;2022-12-18T05:44:50;-5.90;99.40
54960;DHT22;40860;51.710;8.736;2022-12-18T05:48:53;-5.90;99.50
54960;DHT22;40860;51.710;8.736;2022-12-18T05:52:56;-5.70;99.90
54960;DHT22;40860;51.710;8.736;2022-12-18T05:56:59;-5.30;99.90
54960;DHT22;40860;51.710;8.736;2022-12-18T06:01:10;-4.90;99.90
54960;DHT22;40860;51.710;8.736;2022-12-18T06:05:13;-4.80;99.90
54960;DHT22;40860;51.710;8.736;2022-12-18T06:09:16;-4.80;99.90
54960;DHT22;40860;51.710;8.736;2022-12-18T06:13:19;-4.70;99.90
54960;DHT22;40860;51.710;8.736;2022-12-18T06:17:27;-4.70;99.80
54960;DHT22;40860;51.710;8.736;2022-12-18T06:21:31;-4.70;99.70
54960;DHT22;40860;51.710;8.736;2022-12-18T06:25:38;-4.90;99.40
54960;DHT22;40860;51.710;8.736;2022-12-18T06:29:41;-5.00;99.50
54960;DHT22;40860;51.710;8.736;2022-12-18T06:33:45;-5.00;99.70
54960;DHT22;40860;51.710;8.736;2022-12-18T06:37:48;-5.00;99.70
54960;DHT22;40860;51.710;8.736;2022-12-18T06:41:51;-4.90;99.90
54960;DHT22;40860;51.710;8.736;2022-12-18T06:45:58;-4.60;99.90
54960;DHT22;40860;51.710;8.736;2022-12-18T06:50:03;-4.40;99.40
54960;DHT22;40860;51.710;8.736;2022-12-18T06:54:07;-4.40;99.00
54960;DHT22;40860;51.710;8.736;2022-12-18T06:58:10;-4.40;99.00
54960;DHT22;40860;51.710;8.736;2022-12-18T07:02:13;-4.30;99.10
54960;DHT22;40860;51.710;8.736;2022-12-18T07:06:18;-4.20;98.80
54960;DHT22;40860;51.710;8.736;2022-12-18T07:10:21;-4.00;98.60
54960;DHT22;40860;51.710;8.736;2022-12-18T07:14:24;-3.90;98.30
54960;DHT22;40860;51.710;8.736;2022-12-18T07:18:27;-3.90;98.00
54960;DHT22;40860;51.710;8.736;2022-12-18T07:22:31;-3.80;97.60
54960;DHT22;40860;51.710;8.736;2022-12-18T07:26:34;-3.70;97.60
54960;DHT22;40860;51.710;8.736;2022-12-18T07:30:37;-3.70;97.30
54960;DHT22;40860;51.710;8.736;2022-12-18T07:34:40;-3.60;97.20
54960;DHT22;40860;51.710;8.736;2022-12-18T07:38:46;-3.60;97.00
54960;DHT22;40860;51.710;8.736;2022-12-18T07:42:49;-3.70;97.10
54960;DHT22;40860;51.710;8.736;2022-12-18T07:46:52;-3.70;97.20
54960;DHT22;40860;51.710;8.736;2022-12-18T07:50:58;-3.80;97.10
54960;DHT22;40860;51.710;8.736;2022-12-18T07:55:03;-3.80;97.10
54960;DHT22;40860;51.710;8.736;2022-12-18T07:59:08;-3.90;97.00
54960;DHT22;40860;51.710;8.736;2022-12-18T08:03:12;-4.00;97.10
54960;DHT22;40860;51.710;8.736;2022-12-18T08:07:15;-4.00;97.30
54960;DHT22;40860;51.710;8.736;2022-12-18T08:11:20;-4.00;97.20
54960;DHT22;40860;51.710;8.736;2022-12-18T08:15:23;-4.00;96.90
54960;DHT22;40860;51.710;8.736;2022-12-18T08:19:26;-4.00;97.00
54960;DHT22;40860;51.710;8.736;2022-12-18T08:23:28;-4.00;97.00
54960;DHT22;40860;51.710;8.736;2022-12-18T08:27:33;-4.00;97.10
54960;DHT22;40860;51.710;8.736;2022-12-18T08:31:36;-3.90;97.20
54960;DHT22;40860;51.710;8.736;2022-12-18T08:35:39;-3.60;97.20
54960;DHT22;40860;51.710;8.736;2022-12-18T08:39:46;-3.20;97.10
54960;DHT22;40860;51.710;8.736;2022-12-18T08:43:50;-2.70;96.50
54960;DHT22;40860;51.710;8.736;2022-12-18T08:48:12;-2.30;95.70
54960;DHT22;40860;51.710;8.736;2022-12-18T08:52:22;-1.90;94.60
54960;DHT22;40860;51.710;8.736;2022-12-18T08:56:25;-1.90;93.90
54960;DHT22;40860;51.710;8.736;2022-12-18T09:00:29;-1.90;93.40
54960;DHT22;40860;51.710;8.736;2022-12-18T09:04:35;-2.00;93.70
54960;DHT22;40860;51.710;8.736;2022-12-18T09:08:38;-2.00;93.30
54960;DHT22;40860;51.710;8.736;2022-12-18T09:12:42;-2.00;93.50
54960;DHT22;40860;51.710;8.736;2022-12-18T09:16:46;-1.90;93.20
54960;DHT22;40860;51.710;8.736;2022-12-18T09:20:49;-1.80;93.40
54960;DHT22;40860;51.710;8.736;2022-12-18T09:24:54;-1.70;93.50
54960;DHT22;40860;51.710;8.736;2022-12-18T09:28:57;-1.30;93.00
54960;DHT22;40860;51.710;8.736;2022-12-18T09:33:01;-1.20;92.40
54960;DHT22;40860;51.710;8.736;2022-12-18T09:37:04;-1.20;92.60
54960;DHT22;40860;51.710;8.736;2022-12-18T09:41:19;-1.20;91.90
54960;DHT22;40860;51.710;8.736;2022-12-18T09:45:26;-1.10;91.90
54960;DHT22;40860;51.710;8.736;2022-12-18T09:49:35;-0.80;91.80
54960;DHT22;40860;51.710;8.736;2022-12-18T09:53:41;-0.60;90.80
54960;DHT22;40860;51.710;8.736;2022-12-18T09:57:49;-0.30;91.20
54960;DHT22;40860;51.710;8.736;2022-12-18T10:01:53;-0.10;90.60
54960;DHT22;40860;51.710;8.736;2022-12-18T10:06:04;-0.10;90.10
54960;DHT22;40860;51.710;8.736;2022-12-18T10:10:14;-0.10;90.10
54960;DHT22;40860;51.710;8.736;2022-12-18T10:14:29;-0.20;89.60
54960;DHT22;40860;51.710;8.736;2022-12-18T10:18:50;-0.30;89.10
54960;DHT22;40860;51.710;8.736;2022-12-18T10:23:04;-0.30;89.30
54960;DHT22;40860;51.710;8.736;2022-12-18T10:27:15;-0.30;88.60
54960;DHT22;40860;51.710;8.736;2022-12-18T10:31:20;-0.30;88.40
54960;DHT22;40860;51.710;8.736;2022-12-18T10:35:26;-0.30;88.00
54960;DHT22;40860;51.710;8.736;2022-12-18T10:39:31;-0.30;87.10
54960;DHT22;40860;51.710;8.736;2022-12-18T10:43:35;-0.30;87.40
54960;DHT22;40860;51.710;8.736;2022-12-18T10:47:42;-0.30;87.40
54960;DHT22;40860;51.710;8.736;2022-12-18T10:51:46;-0.30;88.00
54960;DHT22;40860;51.710;8.736;2022-12-18T10:55:52;-0.20;88.10
54960;DHT22;40860;51.710;8.736;2022-12-18T10:59:57;-0.20;87.80
54960;DHT22;40860;51.710;8.736;2022-12-18T11:04:04;-0.30;87.60
54960;DHT22;40860;51.710;8.736;2022-12-18T11:08:20;-0.30;86.90
54960;DHT22;40860;51.710;8.736;2022-12-18T11:12:27;-0.30;87.50
54960;DHT22;40860;51.710;8.736;2022-12-18T11:16:34;-0.30;87.60
54960;DHT22;40860;51.710;8.736;2022-12-18T11:20:40;-0.40;86.70
54960;DHT22;40860;51.710;8.736;2022-12-18T11:24:49;-0.40;86.50
54960;DHT22;40860;51.710;8.736;2022-12-18T11:29:18;-0.40;87.30
54960;DHT22;40860;51.710;8.736;2022-12-18T11:33:25;-0.30;86.30
54960;DHT22;40860;51.710;8.736;2022-12-18T11:37:29;-0.30;86.80
54960;DHT22;40860;51.710;8.736;2022-12-18T11:41:37;-0.20;87.30
54960;DHT22;40860;51.710;8.736;2022-12-18T11:46:06;-0.20;86.20
54960;DHT22;40860;51.710;8.736;2022-12-18T11:50:17;0.00;86.60
54960;DHT22;40860;51.710;8.736;2022-12-18T11:54:21;0.00;84.70
54960;DHT22;40860;51.710;8.736;2022-12-18T11:58:31;0.10;84.20
54960;DHT22;40860;51.710;8.736;2022-12-18T12:02:51;0.10;84.00
54960;DHT22;40860;51.710;8.736;2022-12-18T12:07:03;0.20;83.90
54960;DHT22;40860;51.710;8.736;2022-12-18T12:11:15;0.40;82.10
54960;DHT22;40860;51.710;8.736;2022-12-18T12:15:30;0.30;82.70
54960;DHT22;40860;51.710;8.736;2022-12-18T12:19:44;0.40;80.70
54960;DHT22;40860;51.710;8.736;2022-12-18T12:23:52;0.40;80.50
54960;DHT22;40860;51.710;8.736;2022-12-18T12:28:07;0.40;80.80
54960;DHT22;40860;51.710;8.736;2022-12-18T12:32:24;0.30;81.20
54960;DHT22;40860;51.710;8.736;2022-12-18T12:36:36;0.40;82.90
54960;DHT22;40860;51.710;8.736;2022-12-18T12:40:46;0.50;83.20
54960;DHT22;40860;51.710;8.736;2022-12-18T12:45:03;0.40;81.30
54960;DHT22;40860;51.710;8.736;2022-12-18T12:49:12;0.50;80.40
54960;DHT22;40860;51.710;8.736;2022-12-18T12:53:23;0.50;80.20
54960;DHT22;40860;51.710;8.736;2022-12-18T12:57:33;0.50;80.40
54960;DHT22;40860;51.710;8.736;2022-12-18T13:01:41;0.60;79.10
54960;DHT22;40860;51.710;8.736;2022-12-18T13:05:53;0.60;79.30
54960;DHT22;40860;51.710;8.736;2022-12-18T13:10:19;0.70;78.90
54960;DHT22;40860;51.710;8.736;2022-12-18T13:14:29;0.70;79.20
54960;DHT22;40860;51.710;8.736;2022-12-18T13:18:34;0.70;78.40
54960;DHT22;40860;51.710;8.736;2022-12-18T13:22:40;0.70;79.70
54960;DHT22;40860;51.710;8.736;2022-12-18T13:26:45;0.70;78.20
54960;DHT22;40860;51.710;8.736;2022-12-18T13:30:53;0.70;77.20
54960;DHT22;40860;51.710;8.736;2022-12-18T13:35:40;0.70;77.10
54960;DHT22;40860;51.710;8.736;2022-12-18T13:39:57;0.70;77.60
54960;DHT22;40860;51.710;8.736;2022-12-18T13:44:13;0.60;77.90
54960;DHT22;40860;51.710;8.736;2022-12-18T13:48:24;0.50;79.00
54960;DHT22;40860;51.710;8.736;2022-12-18T13:52:34;0.50;79.90
54960;DHT22;40860;51.710;8.736;2022-12-18T13:56:43;0.40;80.00
54960;DHT22;40860;51.710;8.736;2022-12-18T14:00:49;0.30;80.20
54960;DHT22;40860;51.710;8.736;2022-12-18T14:04:53;0.20;81.00
54960;DHT22;40860;51.710;8.736;2022-12-18T14:08:56;0.20;81.20
54960;DHT22;40860;51.710;8.736;2022-12-18T14:13:05;0.10;82.50
54960;DHT22;40860;51.710;8.736;2022-12-18T14:17:11;0.10;82.20
54960;DHT22;40860;51.710;8.736;2022-12-18T14:21:20;0.10;82.20
54960;DHT22;40860;51.710;8.736;2022-12-18T14:25:25;0.10;82.20
54960;DHT22;40860;51.710;8.736;2022-12-18T14:29:29;0.10;82.20
54960;DHT22;40860;51.710;8.736;2022-12-18T14:33:34;0.10;82.10
54960;DHT22;40860;51.710;8.736;2022-12-18T14:37:41;0.10;81.70
54960;DHT22;40860;51.710;8.736;2022-12-18T14:41:44;0.10;82.20
54960;DHT22;40860;51.710;8.736;2022-12-18T14:45:48;0.00;82.00
54960;DHT22;40860;51.710;8.736;2022-12-18T14:49:54;0.00;82.20
54960;DHT22;40860;51.710;8.736;2022-12-18T14:53:58;0.00;82.30
54960;DHT22;40860;51.710;8.736;2022-12-18T14:58:02;0.00;82.40
54960;DHT22;40860;51.710;8.736;2022-12-18T15:02:12;-0.10;83.00
54960;DHT22;40860;51.710;8.736;2022-12-18T15:06:28;-0.10;83.50
54960;DHT22;40860;51.710;8.736;2022-12-18T15:10:34;-0.20;84.00
54960;DHT22;40860;51.710;8.736;2022-12-18T15:14:40;-0.10;83.20
54960;DHT22;40860;51.710;8.736;2022-12-18T15:18:43;-0.10;83.10
54960;DHT22;40860;51.710;8.736;2022-12-18T15:22:51;-0.10;82.90
54960;DHT22;40860;51.710;8.736;2022-12-18T15:26:54;-0.10;82.70
54960;DHT22;40860;51.710;8.736;2022-12-18T15:31:03;0.00;81.50
54960;DHT22;40860;51.710;8.736;2022-12-18T15:35:14;0.00;80.50
54960;DHT22;40860;51.710;8.736;2022-12-18T15:39:18;0.10;80.90
54960;DHT22;40860;51.710;8.736;2022-12-18T15:43:22;0.10;80.50
54960;DHT22;40860;51.710;8.736;2022-12-18T15:47:38;0.00;81.30
54960;DHT22;40860;51.710;8.736;2022-12-18T15:51:41;0.00;81.10
54960;DHT22;40860;51.710;8.736;2022-12-18T15:55:47;0.00;81.40
54960;DHT22;40860;51.710;8.736;2022-12-18T16:00:12;0.00;80.80
54960;DHT22;40860;51.710;8.736;2022-12-18T16:04:16;0.00;81.10
54960;DHT22;40860;51.710;8.736;2022-12-18T16:08:21;0.00;80.80
54960;DHT22;40860;51.710;8.736;2022-12-18T16:12:26;0.00;81.00
54960;DHT22;40860;51.710;8.736;2022-12-18T16:16:28;0.00;80.80
54960;DHT22;40860;51.710;8.736;2022-12-18T16:20:32;0.00;81.60
54960;DHT22;40860;51.710;8.736;2022-12-18T16:24:35;0.00;81.30
54960;DHT22;40860;51.710;8.736;2022-12-18T16:28:40;0.00;81.60
54960;DHT22;40860;51.710;8.736;2022-12-18T16:32:49;0.00;81.40
54960;DHT22;40860;51.710;8.736;2022-12-18T16:36:53;-0.10;82.30
54960;DHT22;40860;51.710;8.736;2022-12-18T16:41:11;-0.20;82.90
54960;DHT22;40860;51.710;8.736;2022-12-18T16:45:36;-0.30;83.40
54960;DHT22;40860;51.710;8.736;2022-12-18T16:49:38;-0.30;83.70
54960;DHT22;40860;51.710;8.736;2022-12-18T16:53:41;-0.40;83.70
54960;DHT22;40860;51.710;8.736;2022-12-18T16:57:45;-0.40;84.20
54960;DHT22;40860;51.710;8.736;2022-12-18T17:01:50;-0.40;84.50
54960;DHT22;40860;51.710;8.736;2022-12-18T17:05:53;-0.50;84.60
54960;DHT22;40860;51.710;8.736;2022-12-18T17:09:56;-0.50;84.50
54960;DHT22;40860;51.710;8.736;2022-12-18T17:13:59;-0.50;84.60
54960;DHT22;40860;51.710;8.736;2022-12-18T17:18:08;-0.50;84.50
54960;DHT22;40860;51.710;8.736;2022-12-18T17:22:13;-0.50;84.10
54960;DHT22;40860;51.710;8.736;2022-12-18T17:26:16;-0.40;84.20
54960;DHT22;40860;51.710;8.736;2022-12-18T17:30:18;-0.50;84.40
54960;DHT22;40860;51.710;8.736;2022-12-18T17:34:23;-0.50;84.10
54960;DHT22;40860;51.710;8.736;2022-12-18T17:38:26;-0.40;83.80
54960;DHT22;40860;51.710;8.736;2022-12-18T17:42:29;-0.50;83.90
54960;DHT22;40860;51.710;8.736;2022-12-18T17:46:32;-0.50;83.40
54960;DHT22;40860;51.710;8.736;2022-12-18T17:50:37;-0.50;83.50
54960;DHT22;40860;51.710;8.736;2022-12-18T17:54:40;-0.50;83.50
54960;DHT22;40860;51.710;8.736;2022-12-18T17:58:44;-0.50;83.70
54960;DHT22;40860;51.710;8.736;2022-12-18T18:02:48;-0.50;84.10
54960;DHT22;40860;51.710;8.736;2022-12-18T18:06:52;-0.50;84.60
54960;DHT22;40860;51.710;8.736;2022-12-18T18:10:55;-0.50;85.00
54960;DHT22;40860;51.710;8.736;2022-12-18T18:15:53;-0.60;85.60
54960;DHT22;40860;51.710;8.736;2022-12-18T18:20:02;-0.60;86.70
54960;DHT22;40860;51.710;8.736;2022-12-18T18:24:09;-0.70;87.10
54960;DHT22;40860;51.710;8.736;2022-12-18T18:28:13;-0.80;87.80
54960;DHT22;40860;51.710;8.736;2022-12-18T18:32:16;-0.80;88.40
54960;DHT22;40860;51.710;8.736;2022-12-18T18:36:19;-0.80;88.80
54960;DHT22;40860;51.710;8.736;2022-12-18T18:40:24;-0.80;89.50
54960;DHT22;40860;51.710;8.736;2022-12-18T18:44:29;-0.80;90.00
54960;DHT22;40860;51.710;8.736;2022-12-18T18:48:33;-0.80;90.30
54960;DHT22;40860;51.710;8.736;2022-12-18T18:52:38;-0.80;90.30
54960;DHT22;40860;51.710;8.736;2022-12-18T18:56:44;-0.80;90.50
54960;DHT22;40860;51.710;8.736;2022-12-18T19:01:12;-0.80;90.70
54960;DHT22;40860;51.710;8.736;2022-12-18T19:05:15;-0.80;90.90
54960;DHT22;40860;51.710;8.736;2022-12-18T19:09:18;-0.70;91.00
54960;DHT22;40860;51.710;8.736;2022-12-18T19:13:31;-0.70;91.10
54960;DHT22;40860;51.710;8.736;2022-12-18T19:17:36;-0.80;90.80
54960;DHT22;40860;51.710;8.736;2022-12-18T19:21:40;-0.80;90.90
54960;DHT22;40860;51.710;8.736;2022-12-18T19:25:43;-0.80;91.00
54960;DHT22;40860;51.710;8.736;2022-12-18T19:29:49;-0.90;91.10
54960;DHT22;40860;51.710;8.736;2022-12-18T19:33:52;-0.90;91.20
54960;DHT22;40860;51.710;8.736;2022-12-18T19:37:55;-1.00;91.40
54960;DHT22;40860;51.710;8.736;2022-12-18T19:41:58;-1.00;91.50
54960;DHT22;40860;51.710;8.736;2022-12-18T19:46:02;-1.00;91.70
54960;DHT22;40860;51.710;8.736;2022-12-18T19:50:06;-1.00;91.90
54960;DHT22;40860;51.710;8.736;2022-12-18T19:54:09;-1.00;92.00
54960;DHT22;40860;51.710;8.736;2022-12-18T19:58:17;-1.00;92.20
54960;DHT22;40860;51.710;8.736;2022-12-18T20:02:24;-1.00;92.40
54960;DHT22;40860;51.710;8.736;2022-12-18T20:06:29;-1.00;92.40
54960;DHT22;40860;51.710;8.736;2022-12-18T20:10:33;-0.90;92.50
54960;DHT22;40860;51.710;8.736;2022-12-18T20:14:36;-0.90;92.60
54960;DHT22;40860;51.710;8.736;2022-12-18T20:18:40;-0.90;92.60
54960;DHT22;40860;51.710;8.736;2022-12-18T20:22:44;-0.90;92.70
54960;DHT22;40860;51.710;8.736;2022-12-18T20:26:46;-0.90;92.70
54960;DHT22;40860;51.710;8.736;2022-12-18T20:30:50;-0.80;92.70
54960;DHT22;40860;51.710;8.736;2022-12-18T20:34:54;-0.80;92.70
54960;DHT22;40860;51.710;8.736;2022-12-18T20:38:58;-0.80;92.80
54960;DHT22;40860;51.710;8.736;2022-12-18T20:43:03;-0.80;92.90
54960;DHT22;40860;51.710;8.736;2022-12-18T20:47:07;-0.70;93.00
54960;DHT22;40860;51.710;8.736;2022-12-18T20:51:13;-0.60;93.00
54960;DHT22;40860;51.710;8.736;2022-12-18T20:55:17;-0.60;93.00
54960;DHT22;40860;51.710;8.736;2022-12-18T20:59:20;-0.60;92.90
54960;DHT22;40860;51.710;8.736;2022-12-18T21:03:23;-0.50;92.90
54960;DHT22;40860;51.710;8.736;2022-12-18T21:07:28;-0.60;92.90
54960;DHT22;40860;51.710;8.736;2022-12-18T21:11:32;-0.70;93.10
54960;DHT22;40860;51.710;8.736;2022-12-18T21:15:52;-0.70;93.40
54960;DHT22;40860;51.710;8.736;2022-12-18T21:19:55;-0.80;93.60
54960;DHT22;40860;51.710;8.736;2022-12-18T21:24:00;-0.80;93.80
54960;DHT22;40860;51.710;8.736;2022-12-18T21:28:03;-0.80;93.90
54960;DHT22;40860;51.710;8.736;2022-12-18T21:32:06;-0.70;94.00
54960;DHT22;40860;51.710;8.736;2022-12-18T21:36:10;-0.80;94.00
54960;DHT22;40860;51.710;8.736;2022-12-18T21:40:14;-0.80;94.10
54960;DHT22;40860;51.710;8.736;2022-12-18T21:44:18;-0.80;94.20
54960;DHT22;40860;51.710;8.736;2022-12-18T21:48:23;-0.70;94.30
54960;DHT22;40860;51.710;8.736;2022-12-18T21:52:27;-0.70;94.60
54960;DHT22;40860;51.710;8.736;2022-12-18T21:56:44;-0.60;94.40
54960;DHT22;40860;51.710;8.736;2022-12-18T22:00:48;-0.50;94.40
54960;DHT22;40860;51.710;8.736;2022-12-18T22:04:54;-0.40;94.40
54960;DHT22;40860;51.710;8.736;2022-12-18T22:08:57;-0.30;94.20
54960;DHT22;40860;51.710;8.736;2022-12-18T22:13:01;-0.20;94.10
54960;DHT22;40860;51.710;8.736;2022-12-18T22:17:04;-0.20;94.00
54960;DHT22;40860;51.710;8.736;2022-12-18T22:21:21;-0.20;94.00
54960;DHT22;40860;51.710;8.736;2022-12-18T22:25:29;-0.10;94.00
54960;DHT22;40860;51.710;8.736;2022-12-18T22:29:34;-0.10;94.00
54960;DHT22;40860;51.710;8.736;2022-12-18T22:33:54;-0.10;94.00
54960;DHT22;40860;51.710;8.736;2022-12-18T22:37:57;-0.10;94.10
54960;DHT22;40860;51.710;8.736;2022-12-18T22:42:00;-0.10;94.30
54960;DHT22;40860;51.710;8.736;2022-12-18T22:46:05;-0.10;94.60
54960;DHT22;40860;51.710;8.736;2022-12-18T22:50:09;-0.10;94.90
54960;DHT22;40860;51.710;8.736;2022-12-18T22:54:14;-0.10;95.00
54960;DHT22;40860;51.710;8.736;2022-12-18T22:58:16;0.00;95.30
54960;DHT22;40860;51.710;8.736;2022-12-18T23:02:21;0.00;95.60
54960;DHT22;40860;51.710;8.736;2022-12-18T23:06:26;0.00;95.70
54960;DHT22;40860;51.710;8.736;2022-12-18T23:10:29;0.10;96.00
54960;DHT22;40860;51.710;8.736;2022-12-18T23:14:32;0.20;96.10
54960;DHT22;40860;51.710;8.736;2022-12-18T23:18:36;0.30;96.40
54960;DHT22;40860;51.710;8.736;2022-12-18T23:22:39;0.30;96.40
54960;DHT22;40860;51.710;8.736;2022-12-18T23:26:42;0.40;96.60
54960;DHT22;40860;51.710;8.736;2022-12-18T23:30:45;0.40;96.70
54960;DHT22;40860;51.710;8.736;2022-12-18T23:34:49;0.50;96.80
54960;DHT22;40860;51.710;8.736;2022-12-18T23:38:53;0.60;97.10
54960;DHT22;40860;51.710;8.736;2022-12-18T23:42:57;0.70;97.30
54960;DHT22;40860;51.710;8.736;2022-12-18T23:47:00;0.80;97.40
54960;DHT22;40860;51.710;8.736;2022-12-18T23:51:06;0.90;97.20
54960;DHT22;40860;51.710;8.736;2022-12-18T23:55:09;1.00;97.50
54960;DHT22;40860;51.710;8.736;2022-12-18T23:59:12;1.00;97.40
